الصفحة الرئيسية
METAR-TAF:

METAR-TAF

مطار :

Weno, مايكرونيزيا

دائرة عرض: 07-28N, خط طول: 151-51E, ارتفاع: 3 متر

مراقبة الطقس الحالي

تاريخ ووقت الإصدار 1ساعة و 9 دقيقة قبل الساعة 22:50UTC
ريح 8 عقدة من الشمال/الشمال الشرقي
درجة الحرارة 28°درجة مئوية
الرطوبة 89%
ضغط 1009 hPa
الرؤية: 22.5 كم
غيوم متفرقة على ارتفاع 1300 قدم, مزنة ركامية.
غيوم مفككة على ارتفاع 12000 قدم
ملبد بالغيوم على ارتفاع 28000 قدم
مطر خفيف

METAR: PTKK 162250Z 02008KT 14SM -RA SCT013CB BKN120 OVC280 28/26 A2981 RMK SHRAB10E46RAB46 CB ALQDS MOV S SLP098 T02780263

زمن: 09:59 (23:59 UTC)

توقعات

تاريخ ووقت الإصدار 26 دقيقة قبل الساعة 23:33UTC
التوقعات صالحة من17 الساعة 00 UTC إلى 17 الساعة 24 UTC
ريح 5 عقدةمن اتجاهات متغيرة
الرؤية: 10 كم
غيوم متفرقة على ارتفاع 1500 قدم
غيوم مفككة على ارتفاع 12000 قدم
زخات في الجوار
مؤقت
من 17 الساعة 00 UTC إلى 17 الساعة 04 UTC
الرؤية: 4.8 كم
غيوم مفككة على ارتفاع 1500 قدم
ملبد بالغيوم على ارتفاع 3000 قدم
زخات من المطر

TAF: PTKK 162333Z 1700/1724 VRB05KT P6SM VCSH SCT015 BKN120 TEMPO 1700/1704 3SM SHRA BKN015 OVC030

أرصاد الطقس والتوقعات من أكثر من 4000 مطار (تقارير الطقس للمطار METAR والتنبؤ بالطقس بالمطارTAF).

المحطات المتاحة هي النقط الصفراء والحمراء على الخريطة.

حرك المؤشر فوق النقطة لمعرفة اسم المحطة.

ثم انقر لمعرفة أرصاد وتوقعات الطقس.

لتغيير الخارطة: اضغط على الأزرار الخضراء مع رمز الصليب الأسود للتكبير. على الزر الأخضر مع شرطة للتصغير، أو على الأسهم الخضراء للخرائط المجاورة.


METAR-TAF: